createdAt,value
2022-10-01T00:00:33.177Z,1008.35
2022-10-01T00:01:33.444Z,1008.36
2022-10-01T00:02:33.160Z,1008.37
2022-10-01T00:03:33.135Z,1008.33
2022-10-01T00:04:33.123Z,1008.32
2022-10-01T00:05:33.150Z,1008.36
2022-10-01T00:06:33.105Z,1008.33
2022-10-01T00:07:33.089Z,1008.46
2022-10-01T00:08:33.074Z,1008.38
2022-10-01T00:09:33.103Z,1008.30
2022-10-01T00:10:33.061Z,1008.31
2022-10-01T00:11:33.258Z,1008.34
2022-10-01T00:12:33.031Z,1008.26
2022-10-01T00:13:33.024Z,1008.26
2022-10-01T00:14:33.042Z,1008.22
2022-10-01T00:15:33.005Z,1008.23
2022-10-01T00:16:33.025Z,1008.25
2022-10-01T00:17:32.987Z,1008.20
2022-10-01T00:18:32.980Z,1008.20
2022-10-01T00:19:32.977Z,1008.17
2022-10-01T00:20:33.066Z,1008.14
2022-10-01T00:21:33.243Z,1008.11
2022-10-01T00:22:32.927Z,1008.12
2022-10-01T00:23:32.917Z,1008.09
2022-10-01T00:24:33.027Z,1008.09
2022-10-01T00:25:32.896Z,1008.09
2022-10-01T00:26:32.876Z,1008.11
2022-10-01T00:27:32.877Z,1008.06
2022-10-01T00:28:32.869Z,1008.08
2022-10-01T00:29:32.848Z,1008.05
2022-10-01T00:30:35.233Z,1008.04
2022-10-01T00:31:33.318Z,1008.03
2022-10-01T00:32:32.840Z,1008.03
2022-10-01T00:33:32.822Z,1008.03
2022-10-01T00:34:32.808Z,1008.03
2022-10-01T00:35:32.791Z,1008.03
2022-10-01T00:36:32.882Z,1007.97
2022-10-01T00:37:32.759Z,1007.97
2022-10-01T00:38:32.828Z,1007.97
2022-10-01T00:39:32.740Z,1007.93
2022-10-01T00:40:32.730Z,1007.89
2022-10-01T00:41:33.215Z,1007.91
2022-10-01T00:42:32.711Z,1007.83
2022-10-01T00:43:32.691Z,1007.86
2022-10-01T00:44:32.703Z,1007.83
2022-10-01T00:45:32.722Z,1007.79
2022-10-01T00:46:32.673Z,1007.73
2022-10-01T00:47:32.685Z,1007.77
2022-10-01T00:48:32.641Z,1007.74
2022-10-01T00:49:32.633Z,1007.66
2022-10-01T00:50:32.743Z,1007.68
2022-10-01T00:51:33.033Z,1007.71
2022-10-01T00:52:32.633Z,1007.67
2022-10-01T00:53:32.594Z,1007.69
2022-10-01T00:54:32.587Z,1007.70
2022-10-01T00:55:35.342Z,1007.68
2022-10-01T00:56:32.669Z,1007.66
2022-10-01T00:57:32.653Z,1007.59
2022-10-01T00:58:32.543Z,1007.64
2022-10-01T00:59:32.524Z,1007.62
2022-10-01T01:00:32.513Z,1007.68
2022-10-01T01:01:32.852Z,1007.62
2022-10-01T01:02:32.572Z,1007.63
2022-10-01T01:03:32.483Z,1007.56
2022-10-01T01:04:32.485Z,1007.62
2022-10-01T01:05:32.462Z,1007.56
2022-10-01T01:06:32.456Z,1007.56
2022-10-01T01:07:32.465Z,1007.62
2022-10-01T01:08:32.433Z,1007.60
2022-10-01T01:09:32.415Z,1007.55
2022-10-01T01:10:32.419Z,1007.58
2022-10-01T01:11:32.692Z,1007.56
2022-10-01T01:12:32.435Z,1007.54
2022-10-01T01:13:32.377Z,1007.58
2022-10-01T01:14:32.377Z,1007.50
2022-10-01T01:15:32.404Z,1007.55
2022-10-01T01:16:32.348Z,1007.52
2022-10-01T01:17:32.368Z,1007.53
2022-10-01T01:18:32.328Z,1007.56
2022-10-01T01:19:32.317Z,1007.51
2022-10-01T01:20:32.314Z,1007.50
2022-10-01T01:21:32.707Z,1007.46
2022-10-01T01:22:32.287Z,1007.44
2022-10-01T01:23:32.293Z,1007.43
2022-10-01T01:24:32.270Z,1007.35
2022-10-01T01:25:32.251Z,1007.35
2022-10-01T01:26:32.241Z,1007.36
2022-10-01T01:27:32.231Z,1007.37
2022-10-01T01:28:32.239Z,1007.41
2022-10-01T01:29:32.201Z,1007.35
2022-10-01T01:30:32.190Z,1007.36
2022-10-01T01:31:32.683Z,1007.41
2022-10-01T01:32:32.212Z,1007.39
2022-10-01T01:33:32.162Z,1007.34
2022-10-01T01:34:32.156Z,1007.36
2022-10-01T01:35:32.149Z,1007.33
2022-10-01T01:36:32.143Z,1007.33
2022-10-01T01:37:32.151Z,1007.31
2022-10-01T01:38:32.121Z,1007.25
2022-10-01T01:39:32.091Z,1007.31
2022-10-01T01:40:32.091Z,1007.28
2022-10-01T01:41:32.394Z,1007.29
2022-10-01T01:42:32.100Z,1007.21
2022-10-01T01:43:32.084Z,1007.22
2022-10-01T01:44:32.052Z,1007.22
2022-10-01T01:45:32.041Z,1007.21
2022-10-01T01:46:32.038Z,1007.21
2022-10-01T01:47:32.073Z,1007.17
2022-10-01T01:48:32.033Z,1007.12
2022-10-01T01:49:32.063Z,1007.10
2022-10-01T01:50:31.986Z,1007.13
2022-10-01T01:51:32.350Z,1007.10
2022-10-01T01:52:31.975Z,1007.08
2022-10-01T01:53:31.968Z,1007.14
2022-10-01T01:54:31.986Z,1007.06
2022-10-01T01:55:31.927Z,1007.04
2022-10-01T01:56:31.925Z,1007.06
2022-10-01T01:57:31.908Z,1007.00
2022-10-01T01:58:31.926Z,1007.03
2022-10-01T01:59:31.887Z,1006.99
2022-10-01T02:00:31.875Z,1006.99
2022-10-01T02:01:32.282Z,1006.96
2022-10-01T02:02:31.888Z,1006.95
2022-10-01T02:03:31.864Z,1006.95
2022-10-01T02:04:31.885Z,1006.91
2022-10-01T02:05:31.827Z,1006.99
2022-10-01T02:06:31.837Z,1006.99
2022-10-01T02:07:31.799Z,1006.96
2022-10-01T02:08:31.828Z,1006.96
2022-10-01T02:09:31.780Z,1006.92
2022-10-01T02:10:31.777Z,1006.95
2022-10-01T02:11:32.141Z,1006.99
2022-10-01T02:12:31.749Z,1006.98
2022-10-01T02:13:31.741Z,1006.90
2022-10-01T02:14:31.741Z,1006.94
2022-10-01T02:15:31.709Z,1006.93
2022-10-01T02:16:31.730Z,1007.01
2022-10-01T02:17:31.690Z,1006.99
2022-10-01T02:18:31.688Z,1006.99
2022-10-01T02:19:31.710Z,1007.01
2022-10-01T02:20:31.662Z,1006.96
2022-10-01T02:21:32.161Z,1006.93
2022-10-01T02:22:31.642Z,1006.95
2022-10-01T02:23:31.650Z,1006.98
2022-10-01T02:24:31.621Z,1006.93
2022-10-01T02:25:31.613Z,1006.96
2022-10-01T02:26:31.602Z,1006.93
2022-10-01T02:27:31.629Z,1006.89
2022-10-01T02:28:31.688Z,1006.90
2022-10-01T02:29:31.562Z,1006.92
2022-10-01T02:30:31.555Z,1006.95
2022-10-01T02:31:31.788Z,1006.86
2022-10-01T02:32:31.565Z,1006.93
2022-10-01T02:33:31.522Z,1006.88
2022-10-01T02:34:31.515Z,1006.93
2022-10-01T02:35:31.505Z,1006.91
2022-10-01T02:36:31.495Z,1006.84
2022-10-01T02:37:31.495Z,1006.81
2022-10-01T02:38:31.468Z,1006.87
2022-10-01T02:39:31.459Z,1006.80
2022-10-01T02:40:31.483Z,1006.81
2022-10-01T02:41:31.791Z,1006.79
2022-10-01T02:42:31.443Z,1006.76
2022-10-01T02:43:31.426Z,1006.79
2022-10-01T02:44:31.410Z,1006.73
2022-10-01T02:45:31.477Z,1006.76
2022-10-01T02:46:31.399Z,1006.71
2022-10-01T02:47:31.423Z,1006.71
2022-10-01T02:48:31.368Z,1006.72
2022-10-01T02:49:31.358Z,1006.61
2022-10-01T02:50:31.341Z,1006.71
2022-10-01T02:51:31.630Z,1006.62
2022-10-01T02:52:31.362Z,1006.70
2022-10-01T02:53:31.307Z,1006.65
2022-10-01T02:54:31.296Z,1006.64
2022-10-01T02:55:31.299Z,1006.70
2022-10-01T02:56:31.270Z,1006.59
2022-10-01T02:57:31.278Z,1006.67
2022-10-01T02:58:31.276Z,1006.61
2022-10-01T02:59:31.249Z,1006.57
2022-10-01T03:00:31.290Z,1006.64
2022-10-01T03:01:31.561Z,1006.57
2022-10-01T03:02:31.255Z,1006.55
2022-10-01T03:03:31.222Z,1006.52
2022-10-01T03:04:31.193Z,1006.56
2022-10-01T03:05:31.180Z,1006.49
2022-10-01T03:06:31.299Z,1006.48
2022-10-01T03:07:31.204Z,1006.50
2022-10-01T03:08:31.182Z,1006.49
2022-10-01T03:09:31.141Z,1006.51
2022-10-01T03:10:31.184Z,1006.46
2022-10-01T03:11:31.402Z,1006.41
2022-10-01T03:12:31.112Z,1006.41
2022-10-01T03:13:31.132Z,1006.44
2022-10-01T03:14:31.081Z,1006.45
2022-10-01T03:15:31.073Z,1006.44
2022-10-01T03:16:31.053Z,1006.41
2022-10-01T03:17:31.070Z,1006.37
2022-10-01T03:18:31.043Z,1006.36
2022-10-01T03:19:31.061Z,1006.32
2022-10-01T03:20:31.012Z,1006.36
2022-10-01T03:21:31.426Z,1006.31
2022-10-01T03:22:30.998Z,1006.32
2022-10-01T03:23:30.992Z,1006.31
2022-10-01T03:24:30.976Z,1006.33
2022-10-01T03:25:30.985Z,1006.33
2022-10-01T03:26:30.956Z,1006.38
2022-10-01T03:27:30.954Z,1006.32
2022-10-01T03:28:31.009Z,1006.32
2022-10-01T03:29:30.936Z,1006.32
2022-10-01T03:30:30.906Z,1006.27
2022-10-01T03:31:31.308Z,1006.28
2022-10-01T03:32:30.885Z,1006.26
2022-10-01T03:33:30.886Z,1006.17
2022-10-01T03:34:30.866Z,1006.23
2022-10-01T03:35:30.857Z,1006.19
2022-10-01T03:36:30.847Z,1006.22
2022-10-01T03:37:30.867Z,1006.23
2022-10-01T03:38:30.828Z,1006.24
2022-10-01T03:39:30.817Z,1006.18
2022-10-01T03:40:30.809Z,1006.19
2022-10-01T03:41:30.997Z,1006.16
2022-10-01T03:42:30.810Z,1006.16
2022-10-01T03:43:30.779Z,1006.17
2022-10-01T03:44:30.758Z,1006.19
2022-10-01T03:45:30.775Z,1006.11
2022-10-01T03:46:30.737Z,1006.08
2022-10-01T03:47:30.769Z,1006.11
2022-10-01T03:48:30.729Z,1006.12
2022-10-01T03:49:30.711Z,1006.08
2022-10-01T03:50:30.735Z,1006.08
2022-10-01T03:51:30.693Z,1006.09
2022-10-01T03:52:30.681Z,1006.04
2022-10-01T03:53:30.681Z,1006.01
2022-10-01T03:54:30.661Z,1005.98
2022-10-01T03:55:30.653Z,1006.00
2022-10-01T03:56:30.662Z,1006.00
2022-10-01T03:57:30.631Z,1005.95
2022-10-01T03:58:30.627Z,1005.93
2022-10-01T03:59:30.606Z,1005.92
2022-10-01T04:00:30.594Z,1005.96
2022-10-01T04:01:30.674Z,1005.94
2022-10-01T04:02:30.658Z,1005.84
2022-10-01T04:03:30.562Z,1005.94
2022-10-01T04:04:30.553Z,1005.85
2022-10-01T04:05:30.544Z,1005.81
2022-10-01T04:06:30.528Z,1005.80
2022-10-01T04:07:30.644Z,1005.87
2022-10-01T04:08:30.528Z,1005.77
2022-10-01T04:09:30.505Z,1005.79
2022-10-01T04:10:30.484Z,1005.77
2022-10-01T04:11:30.741Z,1005.70
2022-10-01T04:12:30.458Z,1005.75
2022-10-01T04:13:30.456Z,1005.74
2022-10-01T04:14:30.436Z,1005.79
2022-10-01T04:15:30.425Z,1005.71
2022-10-01T04:16:30.482Z,1005.74
2022-10-01T04:17:30.407Z,1005.69
2022-10-01T04:18:30.405Z,1005.68
2022-10-01T04:19:30.395Z,1005.66
2022-10-01T04:20:30.389Z,1005.70
2022-10-01T04:21:30.548Z,1005.67
2022-10-01T04:22:30.387Z,1005.71
2022-10-01T04:23:30.351Z,1005.63
2022-10-01T04:24:30.336Z,1005.67
2022-10-01T04:25:30.323Z,1005.64
2022-10-01T04:26:30.310Z,1005.63
2022-10-01T04:27:30.330Z,1005.62
2022-10-01T04:28:30.392Z,1005.61
2022-10-01T04:29:30.299Z,1005.66
2022-10-01T04:30:30.292Z,1005.61
2022-10-01T04:31:30.290Z,1005.55
2022-10-01T04:32:30.279Z,1005.61
2022-10-01T04:33:30.240Z,1005.56
2022-10-01T04:34:30.231Z,1005.55
2022-10-01T04:35:30.258Z,1005.57
2022-10-01T04:36:30.249Z,1005.54
2022-10-01T04:37:30.186Z,1005.51
2022-10-01T04:38:30.181Z,1005.46
2022-10-01T04:39:30.161Z,1005.49
2022-10-01T04:40:30.281Z,1005.45
2022-10-01T04:41:30.153Z,1005.43
2022-10-01T04:42:30.162Z,1005.45
2022-10-01T04:43:30.120Z,1005.43
2022-10-01T04:44:30.123Z,1005.43
2022-10-01T04:45:30.116Z,1005.39
2022-10-01T04:46:30.409Z,1005.39
2022-10-01T04:47:30.764Z,1005.39
2022-10-01T04:48:30.071Z,1005.36
2022-10-01T04:49:30.091Z,1005.42
2022-10-01T04:50:30.052Z,1005.39
2022-10-01T04:51:30.042Z,1005.37
2022-10-01T04:52:30.044Z,1005.34
2022-10-01T04:53:30.033Z,1005.39
2022-10-01T04:54:30.015Z,1005.30
2022-10-01T04:55:30.025Z,1005.29
2022-10-01T04:56:29.992Z,1005.31
2022-10-01T04:57:29.975Z,1005.30
2022-10-01T04:58:29.982Z,1005.28
2022-10-01T04:59:29.965Z,1005.25
2022-10-01T05:00:29.980Z,1005.29
2022-10-01T05:01:30.009Z,1005.24
2022-10-01T05:02:29.970Z,1005.29
2022-10-01T05:03:29.917Z,1005.24
2022-10-01T05:04:29.914Z,1005.33
2022-10-01T05:05:29.895Z,1005.29
2022-10-01T05:06:29.890Z,1005.22
2022-10-01T05:07:29.907Z,1005.22
2022-10-01T05:08:29.868Z,1005.26
2022-10-01T05:09:29.848Z,1005.23
2022-10-01T05:10:29.848Z,1005.24
2022-10-01T05:11:29.835Z,1005.28
2022-10-01T05:12:29.856Z,1005.17
2022-10-01T05:13:29.810Z,1005.23
2022-10-01T05:14:29.798Z,1005.13
2022-10-01T05:15:29.787Z,1005.21
2022-10-01T05:16:29.939Z,1005.18
2022-10-01T05:17:29.774Z,1005.15
2022-10-01T05:18:29.797Z,1005.18
2022-10-01T05:19:29.739Z,1005.15
2022-10-01T05:20:29.746Z,1005.21
2022-10-01T05:21:29.736Z,1005.24
2022-10-01T05:22:29.713Z,1005.15
2022-10-01T05:23:29.701Z,1005.18
2022-10-01T05:24:29.812Z,1005.16
2022-10-01T05:25:29.681Z,1005.18
2022-10-01T05:26:29.672Z,1005.18
2022-10-01T05:27:29.660Z,1005.18
2022-10-01T05:28:29.863Z,1005.13
2022-10-01T05:29:29.676Z,1005.13
2022-10-01T05:30:29.743Z,1005.11
2022-10-01T05:31:29.822Z,1005.10
2022-10-01T05:32:29.629Z,1005.12
2022-10-01T05:33:29.593Z,1005.11
2022-10-01T05:34:29.609Z,1005.10
2022-10-01T05:35:29.602Z,1005.05
2022-10-01T05:36:29.563Z,1005.07
2022-10-01T05:37:29.564Z,1005.07
2022-10-01T05:38:29.572Z,1005.08
2022-10-01T05:39:29.537Z,1005.06
2022-10-01T05:40:29.531Z,1005.07
2022-10-01T05:41:29.512Z,1005.15
2022-10-01T05:42:29.556Z,1004.99
2022-10-01T05:43:29.524Z,1005.00
2022-10-01T05:44:29.483Z,1005.03
2022-10-01T05:45:29.500Z,1004.99
2022-10-01T05:46:29.465Z,1004.94
2022-10-01T05:47:29.444Z,1004.96
2022-10-01T05:48:29.437Z,1004.98
2022-10-01T05:49:29.475Z,1004.97
2022-10-01T05:50:29.416Z,1004.89
2022-10-01T05:51:29.401Z,1004.97
2022-10-01T05:52:29.436Z,1004.93
2022-10-01T05:53:29.385Z,1004.90
2022-10-01T05:54:29.459Z,1004.98
2022-10-01T05:55:29.356Z,1004.95
2022-10-01T05:56:29.453Z,1004.90
2022-10-01T05:57:29.759Z,1004.94
2022-10-01T05:58:29.375Z,1004.89
2022-10-01T05:59:31.901Z,1004.85
2022-10-01T06:00:29.555Z,1004.92
2022-10-01T06:01:29.290Z,1004.85
2022-10-01T06:02:29.336Z,1004.81
2022-10-01T06:03:29.321Z,1004.89
2022-10-01T06:04:29.260Z,1004.78
2022-10-01T06:05:29.249Z,1004.81
2022-10-01T06:06:29.229Z,1004.81
2022-10-01T06:07:29.260Z,1004.86
2022-10-01T06:08:29.231Z,1004.82
2022-10-01T06:09:29.230Z,1004.80
2022-10-01T06:10:29.190Z,1004.79
2022-10-01T06:11:29.179Z,1004.78
2022-10-01T06:12:29.180Z,1004.83
2022-10-01T06:13:29.184Z,1004.69
2022-10-01T06:14:29.172Z,1004.74
2022-10-01T06:15:29.152Z,1004.67
2022-10-01T06:16:29.218Z,1004.68
2022-10-01T06:17:29.131Z,1004.66
2022-10-01T06:18:29.120Z,1004.61
2022-10-01T06:19:29.114Z,1004.63
2022-10-01T06:20:29.120Z,1004.60
2022-10-01T06:21:29.165Z,1004.59
2022-10-01T06:22:29.061Z,1004.62
2022-10-01T06:23:29.059Z,1004.56
2022-10-01T06:24:29.051Z,1004.53
2022-10-01T06:25:29.162Z,1004.50
2022-10-01T06:26:29.027Z,1004.49
2022-10-01T06:27:29.012Z,1004.46
2022-10-01T06:28:29.108Z,1004.48
2022-10-01T06:29:28.995Z,1004.54
2022-10-01T06:30:28.995Z,1004.51
2022-10-01T06:31:29.050Z,1004.45
2022-10-01T06:32:32.815Z,1004.46
2022-10-01T06:33:29.993Z,1004.43
2022-10-01T06:34:28.976Z,1004.47
2022-10-01T06:35:29.023Z,1004.50
2022-10-01T06:36:28.997Z,1004.46
2022-10-01T06:37:28.956Z,1004.44
2022-10-01T06:38:28.986Z,1004.41
2022-10-01T06:39:28.960Z,1004.45
2022-10-01T06:40:28.929Z,1004.40
2022-10-01T06:41:28.879Z,1004.35
2022-10-01T06:42:28.862Z,1004.35
2022-10-01T06:43:28.879Z,1004.36
2022-10-01T06:44:28.836Z,1004.30
2022-10-01T06:45:28.894Z,1004.35
2022-10-01T06:46:28.806Z,1004.28
2022-10-01T06:47:28.852Z,1004.37
2022-10-01T06:48:28.808Z,1004.31
2022-10-01T06:49:28.782Z,1004.28
2022-10-01T06:50:28.876Z,1004.24
2022-10-01T06:51:28.750Z,1004.24
2022-10-01T06:52:28.779Z,1004.23
2022-10-01T06:53:28.740Z,1004.21
2022-10-01T06:54:28.720Z,1004.19
2022-10-01T06:55:28.722Z,1004.17
2022-10-01T06:56:28.701Z,1004.23
2022-10-01T06:57:28.703Z,1004.14
2022-10-01T06:58:28.698Z,1004.14
2022-10-01T06:59:28.672Z,1004.14
2022-10-01T07:00:28.664Z,1004.11
2022-10-01T07:01:28.694Z,1004.06
2022-10-01T07:02:29.111Z,1004.07
2022-10-01T07:03:28.672Z,1004.07
2022-10-01T07:04:28.612Z,1004.04
2022-10-01T07:05:28.601Z,1003.98
2022-10-01T07:06:28.631Z,1004.00
2022-10-01T07:07:30.103Z,1004.01
2022-10-01T07:08:28.571Z,1003.97
2022-10-01T07:09:28.552Z,1003.88
2022-10-01T07:10:28.583Z,1003.89
2022-10-01T07:11:28.540Z,1003.91
2022-10-01T07:12:28.521Z,1003.86
2022-10-01T07:13:28.514Z,1003.89
2022-10-01T07:14:28.502Z,1003.85
2022-10-01T07:15:28.496Z,1003.84
2022-10-01T07:16:28.642Z,1003.88
2022-10-01T07:17:28.474Z,1003.87
2022-10-01T07:18:28.454Z,1003.87
2022-10-01T07:19:28.451Z,1003.83
2022-10-01T07:20:28.434Z,1003.80
2022-10-01T07:21:28.457Z,1003.83
2022-10-01T07:22:28.466Z,1003.78
2022-10-01T07:23:28.415Z,1003.76
2022-10-01T07:24:28.410Z,1003.76
2022-10-01T07:25:28.386Z,1003.68
2022-10-01T07:26:28.383Z,1003.71
2022-10-01T07:27:28.367Z,1003.62
2022-10-01T07:28:28.463Z,1003.63
2022-10-01T07:29:28.360Z,1003.64
2022-10-01T07:30:28.346Z,1003.62
2022-10-01T07:31:28.390Z,1003.62
2022-10-01T07:32:28.326Z,1003.58
2022-10-01T07:33:28.307Z,1003.60
2022-10-01T07:34:28.348Z,1003.63
2022-10-01T07:35:28.289Z,1003.65
2022-10-01T07:36:28.267Z,1003.53
2022-10-01T07:37:28.268Z,1003.58
2022-10-01T07:38:28.289Z,1003.54
2022-10-01T07:39:28.379Z,1003.56
2022-10-01T07:40:28.259Z,1003.50
2022-10-01T07:41:28.220Z,1003.42
2022-10-01T07:42:28.212Z,1003.41
2022-10-01T07:43:28.199Z,1003.39
2022-10-01T07:44:28.221Z,1003.44
2022-10-01T07:45:28.225Z,1003.41
2022-10-01T07:46:31.495Z,1003.41
2022-10-01T07:47:29.161Z,1003.42
2022-10-01T07:48:28.189Z,1003.46
2022-10-01T07:49:28.141Z,1003.41
2022-10-01T07:50:28.121Z,1003.49
2022-10-01T07:51:28.121Z,1003.47
2022-10-01T07:52:28.105Z,1003.46
2022-10-01T07:53:28.123Z,1003.43
2022-10-01T07:54:28.082Z,1003.40
2022-10-01T07:55:28.082Z,1003.38
2022-10-01T07:56:28.062Z,1003.38
2022-10-01T07:57:28.053Z,1003.37
2022-10-01T07:58:28.064Z,1003.33
2022-10-01T07:59:28.146Z,1003.33
2022-10-01T08:00:28.013Z,1003.33
2022-10-01T08:01:28.085Z,1003.34
2022-10-01T08:02:28.103Z,1003.33
2022-10-01T08:03:28.011Z,1003.34
2022-10-01T08:04:27.963Z,1003.25
2022-10-01T08:05:27.964Z,1003.23
2022-10-01T08:06:27.955Z,1003.31
2022-10-01T08:07:27.946Z,1003.24
2022-10-01T08:08:27.928Z,1003.28
2022-10-01T08:09:27.976Z,1003.21
2022-10-01T08:10:27.918Z,1003.12
2022-10-01T08:11:27.926Z,1003.08
2022-10-01T08:12:27.888Z,1003.06
2022-10-01T08:13:27.887Z,1003.04
2022-10-01T08:14:27.885Z,1003.05
2022-10-01T08:15:27.857Z,1003.04
2022-10-01T08:16:27.865Z,1003.01
2022-10-01T08:17:29.587Z,1003.03
2022-10-01T08:18:27.828Z,1003.03
2022-10-01T08:19:27.819Z,1002.95
2022-10-01T08:20:27.809Z,1002.97
2022-10-01T08:21:27.798Z,1002.99
2022-10-01T08:22:27.788Z,1002.93
2022-10-01T08:23:27.821Z,1002.84
2022-10-01T08:24:27.897Z,1002.81
2022-10-01T08:25:27.758Z,1002.79
2022-10-01T08:26:27.748Z,1002.78
2022-10-01T08:27:27.729Z,1002.80
2022-10-01T08:28:27.765Z,1002.87
2022-10-01T08:29:27.819Z,1002.86
2022-10-01T08:30:27.701Z,1002.88
2022-10-01T08:31:27.706Z,1002.82
2022-10-01T08:32:27.670Z,1002.83
2022-10-01T08:33:27.659Z,1002.77
2022-10-01T08:34:27.734Z,1002.81
2022-10-01T08:35:27.660Z,1002.87
2022-10-01T08:36:27.633Z,1002.79
2022-10-01T08:37:27.624Z,1002.79
2022-10-01T08:38:27.623Z,1002.78
2022-10-01T08:39:27.600Z,1002.82
2022-10-01T08:40:27.631Z,1002.77
2022-10-01T08:41:27.583Z,1002.67
2022-10-01T08:42:27.573Z,1002.63
2022-10-01T08:43:27.555Z,1002.70
2022-10-01T08:44:27.543Z,1002.66
2022-10-01T08:45:27.631Z,1002.67
2022-10-01T08:46:27.522Z,1002.65
2022-10-01T08:47:27.517Z,1002.56
2022-10-01T08:48:27.493Z,1002.68
2022-10-01T08:49:27.484Z,1002.65
2022-10-01T08:50:27.522Z,1002.67
2022-10-01T08:51:27.481Z,1002.66
2022-10-01T08:52:27.456Z,1002.55
2022-10-01T08:53:27.444Z,1002.58
2022-10-01T08:54:27.424Z,1002.50
2022-10-01T08:55:27.463Z,1002.59
2022-10-01T08:56:27.421Z,1002.57
2022-10-01T08:57:27.406Z,1002.60
2022-10-01T08:58:27.384Z,1002.66
2022-10-01T08:59:27.607Z,1002.56
2022-10-01T09:00:27.374Z,1002.56
2022-10-01T09:01:27.461Z,1002.55
2022-10-01T09:02:27.354Z,1002.51
2022-10-01T09:03:27.380Z,1002.57
2022-10-01T09:04:27.438Z,1002.58
2022-10-01T09:05:27.347Z,1002.56
2022-10-01T09:06:27.405Z,1002.55
2022-10-01T09:07:27.287Z,1002.54
2022-10-01T09:08:27.278Z,1002.49
2022-10-01T09:09:27.266Z,1002.41
2022-10-01T09:10:27.248Z,1002.46
2022-10-01T09:11:27.256Z,1002.33
2022-10-01T09:12:27.249Z,1002.34
2022-10-01T09:13:27.230Z,1002.31
2022-10-01T09:14:27.227Z,1002.32
2022-10-01T09:15:27.234Z,1002.28
2022-10-01T09:16:27.257Z,1002.31
2022-10-01T09:17:27.199Z,1002.26
2022-10-01T09:18:27.179Z,1002.22
2022-10-01T09:19:27.171Z,1002.17
2022-10-01T09:20:27.161Z,1002.16
2022-10-01T09:21:27.208Z,1002.20
2022-10-01T09:22:27.161Z,1002.15
2022-10-01T09:23:27.132Z,1002.16
2022-10-01T09:24:27.444Z,1002.14
2022-10-01T09:25:27.147Z,1002.15
2022-10-01T09:26:27.091Z,1002.02
2022-10-01T09:27:27.090Z,1002.13
2022-10-01T09:28:27.182Z,1002.04
2022-10-01T09:29:27.063Z,1002.03
2022-10-01T09:30:27.069Z,1002.05
2022-10-01T09:31:27.134Z,1002.02
2022-10-01T09:32:27.027Z,1002.03
2022-10-01T09:33:27.014Z,1001.99
2022-10-01T09:34:27.013Z,1001.97
2022-10-01T09:35:27.024Z,1002.01
2022-10-01T09:36:27.017Z,1002.01
2022-10-01T09:37:26.982Z,1001.97
2022-10-01T09:38:26.966Z,1001.97
2022-10-01T09:39:26.956Z,1001.99
2022-10-01T09:40:26.943Z,1001.96
2022-10-01T09:41:26.981Z,1001.99
2022-10-01T09:42:26.915Z,1001.94
2022-10-01T09:43:26.915Z,1002.00
2022-10-01T09:44:26.897Z,1001.95
2022-10-01T09:45:27.011Z,1001.90
2022-10-01T09:46:26.893Z,1001.88
2022-10-01T09:47:26.888Z,1001.86
2022-10-01T09:48:26.866Z,1001.82
2022-10-01T09:49:26.835Z,1001.95
2022-10-01T09:50:26.838Z,1001.86
2022-10-01T09:51:26.838Z,1001.83
2022-10-01T09:52:26.828Z,1001.84
2022-10-01T09:53:26.808Z,1001.81
2022-10-01T09:54:26.786Z,1001.79
2022-10-01T09:55:26.799Z,1001.74
2022-10-01T09:56:26.776Z,1001.78
2022-10-01T09:57:26.879Z,1001.63
2022-10-01T09:58:26.760Z,1001.63
2022-10-01T09:59:26.778Z,1001.64
2022-10-01T10:00:26.728Z,1001.63
2022-10-01T10:01:26.709Z,1001.66
2022-10-01T10:02:26.825Z,1001.66
2022-10-01T10:03:26.768Z,1001.61
2022-10-01T10:04:26.731Z,1001.68
2022-10-01T10:05:26.679Z,1001.67
2022-10-01T10:06:26.660Z,1001.62
2022-10-01T10:07:26.650Z,1001.62
2022-10-01T10:08:26.643Z,1001.59
2022-10-01T10:09:26.749Z,1001.54
2022-10-01T10:10:26.622Z,1001.55
2022-10-01T10:11:26.601Z,1001.50
2022-10-01T10:12:26.591Z,1001.54
2022-10-01T10:13:26.597Z,1001.52
2022-10-01T10:14:26.601Z,1001.52
2022-10-01T10:15:26.562Z,1001.50
2022-10-01T10:16:26.880Z,1001.49
2022-10-01T10:17:26.552Z,1001.53
2022-10-01T10:18:26.542Z,1001.50
2022-10-01T10:19:26.644Z,1001.51
2022-10-01T10:20:26.503Z,1001.50
2022-10-01T10:21:26.495Z,1001.53
2022-10-01T10:22:26.485Z,1001.50
2022-10-01T10:23:26.528Z,1001.43
2022-10-01T10:24:26.530Z,1001.38
2022-10-01T10:25:26.455Z,1001.46
2022-10-01T10:26:26.443Z,1001.53
2022-10-01T10:27:26.435Z,1001.51
2022-10-01T10:28:26.505Z,1001.46
2022-10-01T10:29:26.446Z,1001.46
2022-10-01T10:30:26.417Z,1001.50
2022-10-01T10:31:26.432Z,1001.51
2022-10-01T10:32:26.376Z,1001.55
2022-10-01T10:33:26.404Z,1001.48
2022-10-01T10:34:26.361Z,1001.44
2022-10-01T10:35:26.478Z,1001.39
2022-10-01T10:36:26.340Z,1001.47
2022-10-01T10:37:26.327Z,1001.43
2022-10-01T10:38:26.315Z,1001.49
2022-10-01T10:39:26.316Z,1001.42
2022-10-01T10:40:29.559Z,1001.44
2022-10-01T10:41:26.314Z,1001.43
2022-10-01T10:42:26.277Z,1001.32
2022-10-01T10:43:26.282Z,1001.36
2022-10-01T10:44:26.257Z,1001.24
2022-10-01T10:45:26.241Z,1001.35
2022-10-01T10:46:26.251Z,1001.26
2022-10-01T10:47:26.221Z,1001.29
2022-10-01T10:48:26.331Z,1001.24
2022-10-01T10:49:26.209Z,1001.21
2022-10-01T10:50:26.181Z,1001.20
2022-10-01T10:51:26.198Z,1001.30
2022-10-01T10:52:26.281Z,1001.21
2022-10-01T10:53:26.181Z,1001.23
2022-10-01T10:54:26.162Z,1001.20
2022-10-01T10:55:26.130Z,1001.27
2022-10-01T10:56:26.122Z,1001.31
2022-10-01T10:57:26.127Z,1001.12
2022-10-01T10:58:26.092Z,1001.15
2022-10-01T10:59:26.104Z,1001.10
2022-10-01T11:00:26.089Z,1001.09
2022-10-01T11:01:26.188Z,1001.06
2022-10-01T11:02:26.078Z,1001.04
2022-10-01T11:03:26.056Z,1001.03
2022-10-01T11:04:26.059Z,1001.06
2022-10-01T11:05:26.032Z,1001.08
2022-10-01T11:06:26.007Z,1001.02
2022-10-01T11:07:25.994Z,1001.00
2022-10-01T11:08:25.983Z,1001.00
2022-10-01T11:09:26.003Z,1001.02
2022-10-01T11:10:25.964Z,1000.95
2022-10-01T11:11:25.968Z,1000.88
2022-10-01T11:12:25.946Z,1000.91
2022-10-01T11:13:25.936Z,1000.93
2022-10-01T11:14:25.947Z,1000.85
2022-10-01T11:15:25.917Z,1000.93
2022-10-01T11:16:26.018Z,1000.82
2022-10-01T11:17:25.898Z,1000.79
2022-10-01T11:18:25.886Z,1000.77
2022-10-01T11:19:25.898Z,1000.81
2022-10-01T11:20:25.858Z,1000.80
2022-10-01T11:21:25.856Z,1000.85
2022-10-01T11:22:25.856Z,1000.92
2022-10-01T11:23:25.849Z,1000.89
2022-10-01T11:24:25.961Z,1000.85
2022-10-01T11:25:25.809Z,1000.76
2022-10-01T11:26:25.809Z,1000.86
2022-10-01T11:27:25.779Z,1000.85
2022-10-01T11:28:25.810Z,1000.85
2022-10-01T11:29:25.766Z,1000.79
2022-10-01T11:30:25.792Z,1000.89
2022-10-01T11:31:25.780Z,1000.83
2022-10-01T11:32:25.730Z,1000.74
2022-10-01T11:33:25.721Z,1000.77
2022-10-01T11:34:25.721Z,1000.67
2022-10-01T11:35:25.700Z,1000.68
2022-10-01T11:36:25.718Z,1000.66
2022-10-01T11:37:25.683Z,1000.64
2022-10-01T11:38:25.670Z,1000.62
2022-10-01T11:39:25.658Z,1000.66
2022-10-01T11:40:25.681Z,1000.66
2022-10-01T11:41:25.641Z,1000.67
2022-10-01T11:42:25.633Z,1000.65
2022-10-01T11:43:25.625Z,1000.67
2022-10-01T11:44:25.614Z,1000.70
2022-10-01T11:45:25.598Z,1000.65
2022-10-01T11:46:25.763Z,1000.63
2022-10-01T11:47:25.573Z,1000.62
2022-10-01T11:48:25.574Z,1000.72
2022-10-01T11:49:25.554Z,1000.61
2022-10-01T11:50:25.543Z,1000.67
2022-10-01T11:51:25.524Z,1000.66
2022-10-01T11:52:25.549Z,1000.69
2022-10-01T11:53:25.506Z,1000.68
2022-10-01T11:54:25.495Z,1000.61
2022-10-01T11:55:25.489Z,1000.68
2022-10-01T11:56:25.503Z,1000.64
2022-10-01T11:57:25.594Z,1000.66
2022-10-01T11:58:25.457Z,1000.75
2022-10-01T11:59:25.445Z,1000.78
2022-10-01T12:00:27.478Z,1000.72
2022-10-01T12:01:25.877Z,1000.71
2022-10-01T12:02:25.609Z,1000.66
2022-10-01T12:03:25.388Z,1000.64
2022-10-01T12:04:25.546Z,1000.69
2022-10-01T12:05:25.414Z,1000.61